sensor_id;sensor_type;location;lat;lon;timestamp;pressure;altitude;pressure_sealevel;temperature;humidity
21359;BME280;13506;50.852;20.632;2024-02-04T00:00:14;97832.66;;;9.63;100.00
21359;BME280;13506;50.852;20.632;2024-02-04T00:03:04;97828.31;;;9.63;100.00
21359;BME280;13506;50.852;20.632;2024-02-04T00:05:33;97825.81;;;9.62;100.00
21359;BME280;13506;50.852;20.632;2024-02-04T00:08:00;97820.63;;;9.62;100.00
21359;BME280;13506;50.852;20.632;2024-02-04T00:10:28;97835.56;;;9.58;100.00
21359;BME280;13506;50.852;20.632;2024-02-04T00:12:58;97839.53;;;9.64;100.00
21359;BME280;13506;50.852;20.632;2024-02-04T00:15:27;97825.53;;;9.66;100.00
21359;BME280;13506;50.852;20.632;2024-02-04T00:17:55;97832.41;;;9.67;100.00
21359;BME280;13506;50.852;20.632;2024-02-04T00:20:23;97833.09;;;9.69;100.00
21359;BME280;13506;50.852;20.632;2024-02-04T00:22:53;97819.59;;;9.64;100.00
21359;BME280;13506;50.852;20.632;2024-02-04T00:25:21;97825.53;;;9.66;100.00
21359;BME280;13506;50.852;20.632;2024-02-04T00:27:50;97822.94;;;9.66;100.00
21359;BME280;13506;50.852;20.632;2024-02-04T00:30:19;97824.59;;;9.67;100.00
21359;BME280;13506;50.852;20.632;2024-02-04T00:32:47;97820.84;;;9.71;100.00
21359;BME280;13506;50.852;20.632;2024-02-04T00:35:15;97827.91;;;9.69;100.00
21359;BME280;13506;50.852;20.632;2024-02-04T00:37:43;97826.06;;;9.71;100.00
21359;BME280;13506;50.852;20.632;2024-02-04T00:40:12;97841.47;;;9.74;100.00
21359;BME280;13506;50.852;20.632;2024-02-04T00:42:40;97844.16;;;9.73;100.00
21359;BME280;13506;50.852;20.632;2024-02-04T00:45:08;97846.66;;;9.74;100.00
21359;BME280;13506;50.852;20.632;2024-02-04T00:47:38;97856.09;;;9.75;100.00
21359;BME280;13506;50.852;20.632;2024-02-04T00:50:07;97853.41;;;9.77;100.00
21359;BME280;13506;50.852;20.632;2024-02-04T00:52:35;97852.50;;;9.78;100.00
21359;BME280;13506;50.852;20.632;2024-02-04T00:55:04;97846.28;;;9.81;100.00
21359;BME280;13506;50.852;20.632;2024-02-04T00:57:32;97839.22;;;9.83;100.00
21359;BME280;13506;50.852;20.632;2024-02-04T01:00:01;97840.88;;;9.84;99.85
21359;BME280;13506;50.852;20.632;2024-02-04T01:02:29;97826.75;;;9.88;99.45
21359;BME280;13506;50.852;20.632;2024-02-04T01:04:58;97826.75;;;9.88;100.00
21359;BME280;13506;50.852;20.632;2024-02-04T01:07:26;97815.44;;;9.89;99.33
21359;BME280;13506;50.852;20.632;2024-02-04T01:09:54;97819.06;;;9.86;99.34
21359;BME280;13506;50.852;20.632;2024-02-04T01:12:22;97817.41;;;9.85;99.46
21359;BME280;13506;50.852;20.632;2024-02-04T01:14:50;97801.91;;;9.84;99.70
21359;BME280;13506;50.852;20.632;2024-02-04T01:17:18;97809.22;;;9.91;99.70
21359;BME280;13506;50.852;20.632;2024-02-04T01:19:47;97814.31;;;9.93;99.82
21359;BME280;13506;50.852;20.632;2024-02-04T01:22:16;97811.81;;;9.91;99.39
21359;BME280;13506;50.852;20.632;2024-02-04T01:24:44;97806.72;;;9.90;99.23
21359;BME280;13506;50.852;20.632;2024-02-04T01:27:15;97815.34;;;9.90;99.19
21359;BME280;13506;50.852;20.632;2024-02-04T01:29:43;97803.69;;;9.83;98.85
21359;BME280;13506;50.852;20.632;2024-02-04T01:32:11;97815.75;;;9.84;99.42
21359;BME280;13506;50.852;20.632;2024-02-04T01:34:39;97808.22;;;9.79;99.22
21359;BME280;13506;50.852;20.632;2024-02-04T01:37:07;97806.56;;;9.78;99.69
21359;BME280;13506;50.852;20.632;2024-02-04T01:39:37;97811.69;;;9.80;99.93
21359;BME280;13506;50.852;20.632;2024-02-04T01:42:05;97823.19;;;9.76;100.00
21359;BME280;13506;50.852;20.632;2024-02-04T01:44:33;97821.81;;;9.70;100.00
21359;BME280;13506;50.852;20.632;2024-02-04T01:47:01;97829.81;;;9.67;100.00
21359;BME280;13506;50.852;20.632;2024-02-04T01:49:30;97817.53;;;9.69;99.64
21359;BME280;13506;50.852;20.632;2024-02-04T01:51:58;97834.06;;;9.68;100.00
21359;BME280;13506;50.852;20.632;2024-02-04T01:54:27;97817.53;;;9.69;100.00
21359;BME280;13506;50.852;20.632;2024-02-04T01:56:59;97819.50;;;9.66;100.00
21359;BME280;13506;50.852;20.632;2024-02-04T01:59:29;97827.22;;;9.67;100.00
21359;BME280;13506;50.852;20.632;2024-02-04T02:02:00;97815.88;;;9.68;100.00
21359;BME280;13506;50.852;20.632;2024-02-04T02:04:28;97807.13;;;9.69;100.00
21359;BME280;13506;50.852;20.632;2024-02-04T02:06:56;97808.81;;;9.70;100.00
21359;BME280;13506;50.852;20.632;2024-02-04T02:09:27;97814.84;;;9.71;100.00
21359;BME280;13506;50.852;20.632;2024-02-04T02:12:03;97802.59;;;9.73;100.00
21359;BME280;13506;50.852;20.632;2024-02-04T02:14:41;97812.91;;;9.60;100.00
21359;BME280;13506;50.852;20.632;2024-02-04T02:17:12;97815.13;;;9.66;100.00
21359;BME280;13506;50.852;20.632;2024-02-04T02:19:50;97814.41;;;9.64;100.00
21359;BME280;13506;50.852;20.632;2024-02-04T02:22:26;97801.50;;;9.63;100.00
21359;BME280;13506;50.852;20.632;2024-02-04T02:24:58;97800.22;;;9.55;100.00
21359;BME280;13506;50.852;20.632;2024-02-04T02:27:27;97794.94;;;9.57;100.00
21359;BME280;13506;50.852;20.632;2024-02-04T02:29:55;97789.03;;;9.55;100.00
21359;BME280;13506;50.852;20.632;2024-02-04T02:32:24;97794.00;;;9.58;100.00
21359;BME280;13506;50.852;20.632;2024-02-04T02:34:52;97791.50;;;9.56;100.00
21359;BME280;13506;50.852;20.632;2024-02-04T02:37:26;97778.44;;;9.58;100.00
21359;BME280;13506;50.852;20.632;2024-02-04T02:39:59;97783.81;;;9.55;100.00
21359;BME280;13506;50.852;20.632;2024-02-04T02:42:30;97778.72;;;9.53;100.00
21359;BME280;13506;50.852;20.632;2024-02-04T02:45:00;97795.34;;;9.51;100.00
21359;BME280;13506;50.852;20.632;2024-02-04T02:47:29;97804.88;;;9.50;100.00
21359;BME280;13506;50.852;20.632;2024-02-04T02:49:58;97795.34;;;9.51;100.00
21359;BME280;13506;50.852;20.632;2024-02-04T02:52:27;97794.38;;;9.52;100.00
21359;BME280;13506;50.852;20.632;2024-02-04T02:54:58;97796.06;;;9.53;100.00
21359;BME280;13506;50.852;20.632;2024-02-04T02:57:27;97787.63;;;9.49;100.00
21359;BME280;13506;50.852;20.632;2024-02-04T02:59:55;97774.00;;;9.46;100.00
21359;BME280;13506;50.852;20.632;2024-02-04T03:02:23;97788.09;;;9.42;100.00
21359;BME280;13506;50.852;20.632;2024-02-04T03:04:51;97772.00;;;9.36;100.00
21359;BME280;13506;50.852;20.632;2024-02-04T03:07:19;97774.13;;;9.30;100.00
21359;BME280;13506;50.852;20.632;2024-02-04T03:09:47;97779.78;;;9.22;100.00
21359;BME280;13506;50.852;20.632;2024-02-04T03:12:16;97783.63;;;9.16;100.00
21359;BME280;13506;50.852;20.632;2024-02-04T03:14:45;97788.16;;;9.13;100.00
21359;BME280;13506;50.852;20.632;2024-02-04T03:17:13;97797.78;;;9.11;100.00
21359;BME280;13506;50.852;20.632;2024-02-04T03:19:41;97796.09;;;9.10;99.54
21359;BME280;13506;50.852;20.632;2024-02-04T03:22:11;97791.22;;;9.05;99.10
21359;BME280;13506;50.852;20.632;2024-02-04T03:24:39;97788.91;;;9.01;98.57
21359;BME280;13506;50.852;20.632;2024-02-04T03:27:07;97794.16;;;8.99;97.00
21359;BME280;13506;50.852;20.632;2024-02-04T03:29:37;97787.50;;;8.95;95.92
21359;BME280;13506;50.852;20.632;2024-02-04T03:32:05;97793.16;;;8.87;95.70
21359;BME280;13506;50.852;20.632;2024-02-04T03:34:33;97785.66;;;8.83;94.03
21359;BME280;13506;50.852;20.632;2024-02-04T03:37:02;97788.50;;;8.78;95.06
21359;BME280;13506;50.852;20.632;2024-02-04T03:39:31;97775.00;;;8.73;94.92
21359;BME280;13506;50.852;20.632;2024-02-04T03:41:59;97787.03;;;8.74;94.08
21359;BME280;13506;50.852;20.632;2024-02-04T03:44:28;97780.34;;;8.70;93.86
21359;BME280;13506;50.852;20.632;2024-02-04T03:46:57;97790.72;;;8.70;94.27
21359;BME280;13506;50.852;20.632;2024-02-04T03:49:25;97796.31;;;8.64;92.14
21359;BME280;13506;50.852;20.632;2024-02-04T03:51:53;97803.13;;;8.65;93.04
21359;BME280;13506;50.852;20.632;2024-02-04T03:54:22;97795.56;;;8.62;93.30
21359;BME280;13506;50.852;20.632;2024-02-04T03:56:50;97799.25;;;8.58;91.79
21359;BME280;13506;50.852;20.632;2024-02-04T03:59:18;97800.06;;;8.58;91.40
21359;BME280;13506;50.852;20.632;2024-02-04T04:01:47;97794.22;;;8.54;91.13
21359;BME280;13506;50.852;20.632;2024-02-04T04:04:17;97821.38;;;8.49;91.54
21359;BME280;13506;50.852;20.632;2024-02-04T04:06:46;97822.19;;;8.49;90.63
21359;BME280;13506;50.852;20.632;2024-02-04T04:09:15;97807.00;;;8.43;90.18
21359;BME280;13506;50.852;20.632;2024-02-04T04:11:43;97816.41;;;8.44;89.09
21359;BME280;13506;50.852;20.632;2024-02-04T04:14:12;97815.78;;;8.41;89.12
21359;BME280;13506;50.852;20.632;2024-02-04T04:16:40;97827.22;;;8.36;84.65
21359;BME280;13506;50.852;20.632;2024-02-04T04:19:08;97832.69;;;8.32;83.38
21359;BME280;13506;50.852;20.632;2024-02-04T04:21:38;97817.47;;;8.26;83.27
21359;BME280;13506;50.852;20.632;2024-02-04T04:24:07;97828.94;;;8.22;81.24
21359;BME280;13506;50.852;20.632;2024-02-04T04:26:35;97807.97;;;8.10;80.93
21359;BME280;13506;50.852;20.632;2024-02-04T04:29:03;97824.59;;;8.06;80.93
21359;BME280;13506;50.852;20.632;2024-02-04T04:31:31;97818.94;;;8.00;80.71
21359;BME280;13506;50.852;20.632;2024-02-04T04:33:59;97815.34;;;8.02;81.02
21359;BME280;13506;50.852;20.632;2024-02-04T04:36:27;97824.22;;;7.98;81.18
21359;BME280;13506;50.852;20.632;2024-02-04T04:38:56;97827.91;;;7.94;81.41
21359;BME280;13506;50.852;20.632;2024-02-04T04:41:25;97815.78;;;7.94;81.02
21359;BME280;13506;50.852;20.632;2024-02-04T04:43:53;97821.72;;;7.97;80.54
21359;BME280;13506;50.852;20.632;2024-02-04T04:46:21;97820.03;;;7.95;80.88
21359;BME280;13506;50.852;20.632;2024-02-04T04:48:49;97827.72;;;7.97;80.76
21359;BME280;13506;50.852;20.632;2024-02-04T04:51:18;97833.16;;;7.92;79.82
21359;BME280;13506;50.852;20.632;2024-02-04T04:53:47;97830.91;;;7.86;78.75
21359;BME280;13506;50.852;20.632;2024-02-04T04:56:16;97832.41;;;7.74;77.25
21359;BME280;13506;50.852;20.632;2024-02-04T04:58:44;97832.75;;;7.68;78.18
21359;BME280;13506;50.852;20.632;2024-02-04T05:01:12;97831.41;;;7.61;78.15
21359;BME280;13506;50.852;20.632;2024-02-04T05:03:40;97824.91;;;7.54;78.00
21359;BME280;13506;50.852;20.632;2024-02-04T05:06:08;97819.06;;;7.50;77.91
21359;BME280;13506;50.852;20.632;2024-02-04T05:08:37;97836.00;;;7.56;78.17
21359;BME280;13506;50.852;20.632;2024-02-04T05:11:05;97837.75;;;7.55;78.81
21359;BME280;13506;50.852;20.632;2024-02-04T05:13:34;97836.28;;;7.51;78.64
21359;BME280;13506;50.852;20.632;2024-02-04T05:16:03;97850.09;;;7.50;78.23
21359;BME280;13506;50.852;20.632;2024-02-04T05:18:31;97856.63;;;7.42;78.14
21359;BME280;13506;50.852;20.632;2024-02-04T05:21:00;97846.34;;;7.40;78.26
21359;BME280;13506;50.852;20.632;2024-02-04T05:23:28;97851.44;;;7.42;78.88
21359;BME280;13506;50.852;20.632;2024-02-04T05:25:56;97862.53;;;7.44;78.69
21359;BME280;13506;50.852;20.632;2024-02-04T05:28:24;97846.59;;;7.36;78.54
21359;BME280;13506;50.852;20.632;2024-02-04T05:30:54;97859.44;;;7.37;78.01
21359;BME280;13506;50.852;20.632;2024-02-04T05:33:22;97873.28;;;7.36;78.45
21359;BME280;13506;50.852;20.632;2024-02-04T05:35:49;97869.88;;;7.36;78.77
21359;BME280;13506;50.852;20.632;2024-02-04T05:38:18;97862.13;;;7.36;78.22
21359;BME280;13506;50.852;20.632;2024-02-04T05:40:46;97869.69;;;7.39;78.73
21359;BME280;13506;50.852;20.632;2024-02-04T05:43:14;97870.31;;;7.44;78.98
21359;BME280;13506;50.852;20.632;2024-02-04T05:45:42;97874.56;;;7.45;78.36
21359;BME280;13506;50.852;20.632;2024-02-04T05:48:12;97867.53;;;7.47;78.27
21359;BME280;13506;50.852;20.632;2024-02-04T05:50:39;97869.38;;;7.45;78.96
21359;BME280;13506;50.852;20.632;2024-02-04T05:53:08;97872.81;;;7.45;79.07
21359;BME280;13506;50.852;20.632;2024-02-04T05:55:36;97864.81;;;7.50;78.85
21359;BME280;13506;50.852;20.632;2024-02-04T05:58:04;97875.22;;;7.48;78.90
21359;BME280;13506;50.852;20.632;2024-02-04T06:00:32;97884.00;;;7.46;79.74
21359;BME280;13506;50.852;20.632;2024-02-04T06:03:00;97883.00;;;7.48;80.14
21359;BME280;13506;50.852;20.632;2024-02-04T06:05:30;97891.59;;;7.49;80.35
21359;BME280;13506;50.852;20.632;2024-02-04T06:07:58;97878.66;;;7.49;79.91
21359;BME280;13506;50.852;20.632;2024-02-04T06:10:26;97894.03;;;7.52;80.89
21359;BME280;13506;50.852;20.632;2024-02-04T06:12:54;97886.59;;;7.46;81.36
21359;BME280;13506;50.852;20.632;2024-02-04T06:15:21;97885.84;;;7.44;80.97
21359;BME280;13506;50.852;20.632;2024-02-04T06:17:50;97893.16;;;7.36;82.73
21359;BME280;13506;50.852;20.632;2024-02-04T06:20:17;97877.72;;;7.34;81.96
21359;BME280;13506;50.852;20.632;2024-02-04T06:22:47;97894.69;;;7.40;82.60
21359;BME280;13506;50.852;20.632;2024-02-04T06:25:15;97876.94;;;7.32;82.98
21359;BME280;13506;50.852;20.632;2024-02-04T06:27:43;97906.78;;;7.55;82.08
21359;BME280;13506;50.852;20.632;2024-02-04T06:30:12;97896.16;;;7.77;82.21
21359;BME280;13506;50.852;20.632;2024-02-04T06:32:40;97900.22;;;7.97;81.49
21359;BME280;13506;50.852;20.632;2024-02-04T06:35:08;97904.56;;;8.12;80.30
21359;BME280;13506;50.852;20.632;2024-02-04T06:37:36;97895.81;;;8.15;79.33
21359;BME280;13506;50.852;20.632;2024-02-04T06:40:07;97907.50;;;8.22;79.62
21359;BME280;13506;50.852;20.632;2024-02-04T06:42:35;97911.09;;;8.20;79.91
21359;BME280;13506;50.852;20.632;2024-02-04T06:45:03;97919.63;;;8.22;79.28
21359;BME280;13506;50.852;20.632;2024-02-04T06:47:31;97909.59;;;8.15;79.97
21359;BME280;13506;50.852;20.632;2024-02-04T06:49:59;97922.53;;;8.15;79.78
21359;BME280;13506;50.852;20.632;2024-02-04T06:52:30;97919.34;;;8.10;79.99
21359;BME280;13506;50.852;20.632;2024-02-04T06:54:58;97920.28;;;8.09;80.73
21359;BME280;13506;50.852;20.632;2024-02-04T06:57:27;97915.19;;;8.08;80.63
21359;BME280;13506;50.852;20.632;2024-02-04T06:59:55;97911.84;;;7.74;80.15
21359;BME280;13506;50.852;20.632;2024-02-04T07:02:23;97920.63;;;7.87;80.37
21359;BME280;13506;50.852;20.632;2024-02-04T07:04:51;97910.66;;;7.95;81.72
21359;BME280;13506;50.852;20.632;2024-02-04T07:07:19;97909.09;;;7.93;80.38
21359;BME280;13506;50.852;20.632;2024-02-04T07:09:47;97906.75;;;8.20;80.59
21359;BME280;13506;50.852;20.632;2024-02-04T07:12:15;97916.59;;;8.45;79.81
21359;BME280;13506;50.852;20.632;2024-02-04T07:14:44;97912.50;;;8.71;79.15
21359;BME280;13506;50.852;20.632;2024-02-04T07:17:13;97920.53;;;8.83;77.83
21359;BME280;13506;50.852;20.632;2024-02-04T07:19:41;97911.19;;;8.94;77.79
21359;BME280;13506;50.852;20.632;2024-02-04T07:22:09;97916.00;;;9.01;76.64
21359;BME280;13506;50.852;20.632;2024-02-04T07:24:37;97921.59;;;9.09;76.54
21359;BME280;13506;50.852;20.632;2024-02-04T07:27:05;97906.56;;;9.14;76.33
21359;BME280;13506;50.852;20.632;2024-02-04T07:29:33;97909.38;;;9.25;75.04
21359;BME280;13506;50.852;20.632;2024-02-04T07:32:03;97898.97;;;9.40;73.83
21359;BME280;13506;50.852;20.632;2024-02-04T07:34:31;97893.34;;;9.47;74.41
21359;BME280;13506;50.852;20.632;2024-02-04T07:37:00;97910.03;;;9.72;72.93
21359;BME280;13506;50.852;20.632;2024-02-04T07:39:28;97898.19;;;9.95;71.60
21359;BME280;13506;50.852;20.632;2024-02-04T07:41:57;97887.97;;;10.06;69.96
21359;BME280;13506;50.852;20.632;2024-02-04T07:44:27;97896.66;;;10.05;69.64
21359;BME280;13506;50.852;20.632;2024-02-04T07:46:55;97898.13;;;9.82;68.76
21359;BME280;13506;50.852;20.632;2024-02-04T07:49:25;97912.53;;;9.59;68.05
21359;BME280;13506;50.852;20.632;2024-02-04T07:51:53;97903.44;;;9.52;69.63
21359;BME280;13506;50.852;20.632;2024-02-04T07:54:21;97889.00;;;9.33;68.78
21359;BME280;13506;50.852;20.632;2024-02-04T07:56:49;97905.09;;;9.10;69.69
21359;BME280;13506;50.852;20.632;2024-02-04T07:59:17;97907.41;;;9.00;70.25
21359;BME280;13506;50.852;20.632;2024-02-04T08:01:45;97907.84;;;8.92;70.66
21359;BME280;13506;50.852;20.632;2024-02-04T08:04:13;97896.91;;;8.87;70.60
21359;BME280;13506;50.852;20.632;2024-02-04T08:06:43;97895.50;;;8.82;71.68
21359;BME280;13506;50.852;20.632;2024-02-04T08:09:11;97896.94;;;9.02;71.37
21359;BME280;13506;50.852;20.632;2024-02-04T08:11:39;97887.03;;;9.23;69.76
21359;BME280;13506;50.852;20.632;2024-02-04T08:14:07;97905.78;;;9.28;69.99
21359;BME280;13506;50.852;20.632;2024-02-04T08:16:36;97896.56;;;9.22;69.51
21359;BME280;13506;50.852;20.632;2024-02-04T08:19:04;97897.22;;;9.11;69.67
21359;BME280;13506;50.852;20.632;2024-02-04T08:21:33;97901.38;;;9.14;69.69
21359;BME280;13506;50.852;20.632;2024-02-04T08:24:02;97892.31;;;9.07;69.74
21359;BME280;13506;50.852;20.632;2024-02-04T08:26:31;97892.97;;;9.10;70.22
21359;BME280;13506;50.852;20.632;2024-02-04T08:28:59;97895.47;;;8.98;70.03
21359;BME280;13506;50.852;20.632;2024-02-04T08:31:29;97894.41;;;8.86;69.77
21359;BME280;13506;50.852;20.632;2024-02-04T08:33:57;97899.47;;;8.73;70.53
21359;BME280;13506;50.852;20.632;2024-02-04T08:36:26;97888.34;;;8.71;70.98
21359;BME280;13506;50.852;20.632;2024-02-04T08:38:53;97904.09;;;8.68;70.73
21359;BME280;13506;50.852;20.632;2024-02-04T08:41:23;97891.56;;;8.60;71.44
21359;BME280;13506;50.852;20.632;2024-02-04T08:43:51;97900.34;;;8.58;72.35
21359;BME280;13506;50.852;20.632;2024-02-04T08:46:20;97897.66;;;8.59;71.46
21359;BME280;13506;50.852;20.632;2024-02-04T08:48:47;97892.84;;;8.53;73.08
21359;BME280;13506;50.852;20.632;2024-02-04T08:51:16;97891.25;;;8.50;72.63
21359;BME280;13506;50.852;20.632;2024-02-04T08:53:45;97894.59;;;8.52;73.77
21359;BME280;13506;50.852;20.632;2024-02-04T08:56:14;97895.34;;;8.54;73.69
21359;BME280;13506;50.852;20.632;2024-02-04T08:58:43;97888.38;;;8.55;72.93
21359;BME280;13506;50.852;20.632;2024-02-04T09:01:12;97898.03;;;8.53;74.07
21359;BME280;13506;50.852;20.632;2024-02-04T09:03:39;97904.78;;;8.55;73.25
21359;BME280;13506;50.852;20.632;2024-02-04T09:06:08;97899.78;;;8.52;73.99
21359;BME280;13506;50.852;20.632;2024-02-04T09:08:36;97898.88;;;8.53;74.22
21359;BME280;13506;50.852;20.632;2024-02-04T09:11:04;97895.16;;;8.58;73.17
21359;BME280;13506;50.852;20.632;2024-02-04T09:13:32;97913.88;;;8.63;73.31
21359;BME280;13506;50.852;20.632;2024-02-04T09:16:02;97889.72;;;8.62;72.89
21359;BME280;13506;50.852;20.632;2024-02-04T09:18:31;97896.78;;;8.44;72.69
21359;BME280;13506;50.852;20.632;2024-02-04T09:20:59;97908.41;;;8.53;73.08
21359;BME280;13506;50.852;20.632;2024-02-04T09:23:27;97911.16;;;8.50;72.68
21359;BME280;13506;50.852;20.632;2024-02-04T09:25:56;97888.00;;;8.47;73.16
21359;BME280;13506;50.852;20.632;2024-02-04T09:28:24;97903.03;;;8.56;72.94
21359;BME280;13506;50.852;20.632;2024-02-04T09:30:52;97925.22;;;8.46;71.37
21359;BME280;13506;50.852;20.632;2024-02-04T09:33:21;97913.06;;;8.46;71.02
21359;BME280;13506;50.852;20.632;2024-02-04T09:35:50;97921.09;;;8.58;71.66
21359;BME280;13506;50.852;20.632;2024-02-04T09:38:18;97919.88;;;8.79;72.06
21359;BME280;13506;50.852;20.632;2024-02-04T09:40:46;97924.16;;;8.94;70.07
21359;BME280;13506;50.852;20.632;2024-02-04T09:43:14;97916.09;;;8.99;67.93
21359;BME280;13506;50.852;20.632;2024-02-04T09:45:43;97922.34;;;9.11;68.17
21359;BME280;13506;50.852;20.632;2024-02-04T09:48:12;97904.09;;;9.27;66.39
21359;BME280;13506;50.852;20.632;2024-02-04T09:50:43;97901.97;;;9.33;66.08
21359;BME280;13506;50.852;20.632;2024-02-04T09:53:15;97901.03;;;9.49;66.51
21359;BME280;13506;50.852;20.632;2024-02-04T09:55:50;97907.34;;;9.59;65.16
21359;BME280;13506;50.852;20.632;2024-02-04T09:58:18;97914.34;;;9.71;65.00
21359;BME280;13506;50.852;20.632;2024-02-04T10:00:48;97907.31;;;9.73;63.70
21359;BME280;13506;50.852;20.632;2024-02-04T10:03:19;97909.91;;;9.73;63.78
21359;BME280;13506;50.852;20.632;2024-02-04T10:05:49;97913.59;;;9.84;63.28
21359;BME280;13506;50.852;20.632;2024-02-04T10:08:18;97917.16;;;9.83;62.45
21359;BME280;13506;50.852;20.632;2024-02-04T10:10:47;97896.75;;;9.76;62.50
21359;BME280;13506;50.852;20.632;2024-02-04T10:13:15;97898.78;;;9.71;63.29
21359;BME280;13506;50.852;20.632;2024-02-04T10:15:44;97883.03;;;9.74;63.90
21359;BME280;13506;50.852;20.632;2024-02-04T10:18:12;97894.88;;;9.78;63.47
21359;BME280;13506;50.852;20.632;2024-02-04T10:20:40;97869.81;;;9.92;62.82
21359;BME280;13506;50.852;20.632;2024-02-04T10:23:11;97866.59;;;10.01;63.98
21359;BME280;13506;50.852;20.632;2024-02-04T10:25:40;97870.63;;;10.34;63.72
21359;BME280;13506;50.852;20.632;2024-02-04T10:28:08;97863.63;;;10.62;62.22
21359;BME280;13506;50.852;20.632;2024-02-04T10:30:38;97863.97;;;10.83;61.70
21359;BME280;13506;50.852;20.632;2024-02-04T10:33:06;97837.03;;;10.96;60.27
21359;BME280;13506;50.852;20.632;2024-02-04T10:35:35;97848.03;;;11.13;60.67
21359;BME280;13506;50.852;20.632;2024-02-04T10:38:03;97832.94;;;11.31;60.39
21359;BME280;13506;50.852;20.632;2024-02-04T10:40:33;97835.13;;;11.24;59.35
21359;BME280;13506;50.852;20.632;2024-02-04T10:43:04;97836.69;;;11.14;59.69
21359;BME280;13506;50.852;20.632;2024-02-04T10:45:33;97829.22;;;10.96;59.79
21359;BME280;13506;50.852;20.632;2024-02-04T10:48:05;97836.88;;;10.72;60.42
21359;BME280;13506;50.852;20.632;2024-02-04T10:50:35;97813.03;;;10.53;60.91
21359;BME280;13506;50.852;20.632;2024-02-04T10:53:06;97829.88;;;10.47;61.95
21359;BME280;13506;50.852;20.632;2024-02-04T10:55:41;97821.56;;;10.42;61.89
21359;BME280;13506;50.852;20.632;2024-02-04T10:58:13;97833.81;;;10.40;62.52
21359;BME280;13506;50.852;20.632;2024-02-04T11:00:42;97819.69;;;10.44;62.97
21359;BME280;13506;50.852;20.632;2024-02-04T11:03:10;97823.59;;;10.37;62.99
21359;BME280;13506;50.852;20.632;2024-02-04T11:05:40;97817.50;;;10.11;63.12
21359;BME280;13506;50.852;20.632;2024-02-04T11:08:11;97828.63;;;9.86;63.63
21359;BME280;13506;50.852;20.632;2024-02-04T11:10:41;97807.63;;;9.62;64.54
21359;BME280;13506;50.852;20.632;2024-02-04T11:13:10;97800.88;;;9.59;65.56
21359;BME280;13506;50.852;20.632;2024-02-04T11:15:41;97795.69;;;9.59;65.43
21359;BME280;13506;50.852;20.632;2024-02-04T11:18:49;97803.13;;;9.51;65.95
21359;BME280;13506;50.852;20.632;2024-02-04T11:21:42;97794.38;;;9.52;66.05
21359;BME280;13506;50.852;20.632;2024-02-04T11:24:27;97794.22;;;9.55;66.65
21359;BME280;13506;50.852;20.632;2024-02-04T11:26:58;97794.75;;;9.60;66.64
21359;BME280;13506;50.852;20.632;2024-02-04T11:29:27;97805.56;;;9.67;67.16
21359;BME280;13506;50.852;20.632;2024-02-04T11:31:56;97803.31;;;9.75;66.62
21359;BME280;13506;50.852;20.632;2024-02-04T11:34:24;97789.50;;;9.74;66.62
21359;BME280;13506;50.852;20.632;2024-02-04T11:36:53;97780.59;;;9.78;66.43
21359;BME280;13506;50.852;20.632;2024-02-04T11:39:22;97785.00;;;9.91;66.55
21359;BME280;13506;50.852;20.632;2024-02-04T11:41:52;97781.91;;;9.98;65.37
21359;BME280;13506;50.852;20.632;2024-02-04T11:44:23;97779.34;;;10.11;64.71
21359;BME280;13506;50.852;20.632;2024-02-04T11:46:51;97778.44;;;10.25;64.07
21359;BME280;13506;50.852;20.632;2024-02-04T11:49:25;97775.56;;;10.30;64.21
21359;BME280;13506;50.852;20.632;2024-02-04T11:51:54;97777.25;;;10.31;63.82
21359;BME280;13506;50.852;20.632;2024-02-04T11:54:22;97753.09;;;10.29;63.28
21359;BME280;13506;50.852;20.632;2024-02-04T11:56:51;97764.81;;;10.22;63.41
21359;BME280;13506;50.852;20.632;2024-02-04T11:59:23;97770.06;;;10.07;62.27
21359;BME280;13506;50.852;20.632;2024-02-04T12:01:54;97760.28;;;9.98;62.46
21359;BME280;13506;50.852;20.632;2024-02-04T12:04:23;97754.34;;;9.96;62.13
21359;BME280;13506;50.852;20.632;2024-02-04T12:06:51;97764.84;;;9.94;61.69
21359;BME280;13506;50.852;20.632;2024-02-04T12:09:20;97754.66;;;9.91;60.71
21359;BME280;13506;50.852;20.632;2024-02-04T12:11:50;97749.78;;;9.87;60.92
21359;BME280;13506;50.852;20.632;2024-02-04T12:14:20;97759.22;;;9.88;60.04
21359;BME280;13506;50.852;20.632;2024-02-04T12:16:49;97741.97;;;9.87;60.18
21359;BME280;13506;50.852;20.632;2024-02-04T12:19:17;97732.50;;;9.86;60.09
21359;BME280;13506;50.852;20.632;2024-02-04T12:21:46;97731.69;;;9.85;60.66
21359;BME280;13506;50.852;20.632;2024-02-04T12:24:15;97715.47;;;9.94;60.59
21359;BME280;13506;50.852;20.632;2024-02-04T12:26:44;97709.38;;;9.95;60.64
21359;BME280;13506;50.852;20.632;2024-02-04T12:29:14;97716.22;;;9.96;61.42
21359;BME280;13506;50.852;20.632;2024-02-04T12:31:44;97729.00;;;9.99;60.67
21359;BME280;13506;50.852;20.632;2024-02-04T12:34:13;97707.09;;;10.04;60.58
21359;BME280;13506;50.852;20.632;2024-02-04T12:36:41;97711.16;;;10.08;60.96
21359;BME280;13506;50.852;20.632;2024-02-04T12:39:10;97693.78;;;10.08;60.43
21359;BME280;13506;50.852;20.632;2024-02-04T12:41:40;97688.38;;;10.11;60.85
21359;BME280;13506;50.852;20.632;2024-02-04T12:44:08;97702.50;;;10.20;61.53
21359;BME280;13506;50.852;20.632;2024-02-04T12:46:37;97679.56;;;10.27;61.37
21359;BME280;13506;50.852;20.632;2024-02-04T12:49:07;97687.03;;;10.18;60.75
21359;BME280;13506;50.852;20.632;2024-02-04T12:51:36;97675.50;;;10.10;61.06
21359;BME280;13506;50.852;20.632;2024-02-04T12:54:05;97663.66;;;10.18;61.54
21359;BME280;13506;50.852;20.632;2024-02-04T12:56:45;97668.00;;;10.18;60.91
21359;BME280;13506;50.852;20.632;2024-02-04T12:59:25;97660.09;;;10.19;61.53
21359;BME280;13506;50.852;20.632;2024-02-04T13:01:54;97655.44;;;10.25;61.64
21359;BME280;13506;50.852;20.632;2024-02-04T13:04:24;97651.50;;;10.32;61.16
21359;BME280;13506;50.852;20.632;2024-02-04T13:06:53;97641.63;;;10.37;61.29